createdAt,value
2023-12-11T00:00:02.376Z,10.60
2023-12-11T00:02:29.276Z,10.60
2023-12-11T00:04:56.206Z,10.60
2023-12-11T00:07:23.101Z,10.50
2023-12-11T00:09:50.188Z,10.50
2023-12-11T00:12:17.431Z,10.60
2023-12-11T00:14:44.309Z,10.50
2023-12-11T00:17:11.233Z,10.50
2023-12-11T00:19:38.159Z,10.50
2023-12-11T00:22:05.342Z,10.40
2023-12-11T00:24:32.385Z,10.50
2023-12-11T00:26:59.304Z,10.40
2023-12-11T00:29:26.208Z,10.50
2023-12-11T00:31:53.048Z,10.40
2023-12-11T00:34:20.103Z,10.50
2023-12-11T00:36:47.500Z,10.50
2023-12-11T00:39:17.170Z,10.50
2023-12-11T00:41:45.442Z,10.50
2023-12-11T00:44:12.514Z,10.50
2023-12-11T00:46:39.356Z,10.50
2023-12-11T00:49:06.234Z,10.40
2023-12-11T00:51:33.284Z,10.50
2023-12-11T00:54:00.455Z,10.50
2023-12-11T00:56:27.644Z,10.60
2023-12-11T00:58:54.471Z,10.60
2023-12-11T01:01:21.502Z,10.60
2023-12-11T01:03:48.834Z,10.60
2023-12-11T01:06:15.861Z,10.60
2023-12-11T01:08:42.755Z,10.60
2023-12-11T01:11:10.046Z,10.60
2023-12-11T01:13:37.813Z,10.60
2023-12-11T01:16:05.216Z,10.50
2023-12-11T01:18:32.326Z,10.60
2023-12-11T01:20:59.363Z,10.50
2023-12-11T01:23:26.697Z,10.50
2023-12-11T01:25:53.616Z,10.50
2023-12-11T01:28:20.599Z,10.50
2023-12-11T01:30:47.603Z,10.60
2023-12-11T01:33:14.661Z,10.50
2023-12-11T01:35:41.604Z,10.60
2023-12-11T01:38:08.591Z,10.60
2023-12-11T01:40:35.480Z,10.50
2023-12-11T01:43:20.089Z,10.60
2023-12-11T01:46:19.322Z,10.60
2023-12-11T01:48:47.154Z,10.60
2023-12-11T01:51:16.045Z,10.60
2023-12-11T01:53:43.124Z,10.60
2023-12-11T01:56:10.707Z,10.60
2023-12-11T01:58:38.357Z,10.70
2023-12-11T02:01:06.647Z,10.70
2023-12-11T02:03:33.721Z,10.70
2023-12-11T02:06:01.515Z,10.70
2023-12-11T02:08:29.585Z,10.70
2023-12-11T02:10:56.916Z,10.70
2023-12-11T02:13:23.767Z,10.70
2023-12-11T02:15:52.061Z,10.70
2023-12-11T02:18:19.423Z,10.70
2023-12-11T02:20:46.678Z,10.70
2023-12-11T02:23:32.675Z,10.80
2023-12-11T02:26:14.559Z,10.80
2023-12-11T02:28:42.014Z,10.80
2023-12-11T02:31:09.226Z,10.80
2023-12-11T02:33:36.631Z,10.90
2023-12-11T02:36:04.012Z,10.80
2023-12-11T02:38:30.995Z,10.90
2023-12-11T02:40:57.920Z,10.90
2023-12-11T02:43:24.984Z,10.90
2023-12-11T02:45:51.957Z,10.90
2023-12-11T02:48:19.666Z,10.90
2023-12-11T02:50:46.714Z,10.90
2023-12-11T02:53:13.673Z,10.90
2023-12-11T02:55:40.677Z,10.90
2023-12-11T02:58:07.753Z,11.00
2023-12-11T03:00:35.061Z,11.00
2023-12-11T03:03:02.030Z,11.00
2023-12-11T03:05:28.889Z,11.00
2023-12-11T03:07:55.792Z,11.10
2023-12-11T03:10:23.046Z,11.10
2023-12-11T03:12:49.990Z,11.10
2023-12-11T03:15:16.981Z,11.10
2023-12-11T03:17:43.982Z,11.10
2023-12-11T03:20:12.923Z,11.10
2023-12-11T03:22:40.524Z,11.10
2023-12-11T03:25:07.779Z,11.10
2023-12-11T03:27:34.927Z,11.00
2023-12-11T03:30:02.133Z,11.00
2023-12-11T03:32:29.158Z,11.10
2023-12-11T03:34:56.172Z,11.10
2023-12-11T03:37:23.181Z,11.10
2023-12-11T03:39:50.180Z,11.10
2023-12-11T03:42:17.120Z,11.10
2023-12-11T03:44:44.107Z,11.10
2023-12-11T03:47:11.119Z,11.10
2023-12-11T03:49:39.338Z,11.10
2023-12-11T03:52:06.638Z,11.10
2023-12-11T03:54:33.688Z,11.10
2023-12-11T03:57:00.733Z,11.10
2023-12-11T03:59:27.691Z,11.10
2023-12-11T04:01:54.748Z,11.00
2023-12-11T04:04:21.792Z,11.20
2023-12-11T04:06:48.792Z,11.10
2023-12-11T04:09:15.761Z,11.20
2023-12-11T04:11:44.461Z,11.10
2023-12-11T04:14:11.489Z,11.20
2023-12-11T04:16:42.798Z,11.20
2023-12-11T04:19:11.982Z,11.30
2023-12-11T04:21:39.739Z,11.30
2023-12-11T04:24:06.991Z,11.30
2023-12-11T04:26:33.980Z,11.30
2023-12-11T04:29:00.905Z,11.40
2023-12-11T04:31:27.995Z,11.40
2023-12-11T04:33:55.044Z,11.30
2023-12-11T04:36:22.084Z,11.40
2023-12-11T04:38:49.115Z,11.30
2023-12-11T04:41:16.142Z,11.40
2023-12-11T04:43:44.374Z,11.40
2023-12-11T04:46:11.349Z,11.40
2023-12-11T04:48:38.426Z,11.40
2023-12-11T04:51:05.653Z,11.40
2023-12-11T04:53:32.614Z,11.30
2023-12-11T04:55:59.718Z,11.40
2023-12-11T04:58:27.581Z,11.40
2023-12-11T05:00:54.708Z,11.40
2023-12-11T05:03:21.851Z,11.50
2023-12-11T05:05:48.862Z,11.50
2023-12-11T05:08:15.762Z,11.60
2023-12-11T05:10:43.180Z,11.40
2023-12-11T05:13:10.299Z,11.50
2023-12-11T05:15:37.309Z,11.50
2023-12-11T05:18:04.838Z,11.40
2023-12-11T05:20:31.856Z,11.40
2023-12-11T05:22:58.777Z,11.40
2023-12-11T05:25:25.771Z,11.40
2023-12-11T05:27:52.697Z,11.40
2023-12-11T05:30:22.064Z,11.30
2023-12-11T05:32:51.475Z,11.40
2023-12-11T05:35:18.643Z,11.50
2023-12-11T05:37:45.702Z,11.40
2023-12-11T05:40:22.177Z,11.50
2023-12-11T05:42:51.781Z,11.50
2023-12-11T05:45:19.211Z,11.50
2023-12-11T05:47:46.339Z,11.60
2023-12-11T05:50:14.854Z,11.50
2023-12-11T05:52:42.025Z,11.40
2023-12-11T05:55:09.192Z,11.50
2023-12-11T05:57:36.121Z,11.40
2023-12-11T06:00:04.667Z,11.50
2023-12-11T06:02:32.006Z,11.40
2023-12-11T06:04:59.162Z,11.50
2023-12-11T06:07:26.116Z,11.50
2023-12-11T06:09:53.095Z,11.50
2023-12-11T06:12:20.109Z,11.50
2023-12-11T06:14:49.338Z,11.50
2023-12-11T06:17:16.953Z,11.50
2023-12-11T06:19:45.379Z,11.60
2023-12-11T06:22:12.917Z,11.50
2023-12-11T06:24:41.380Z,11.50
2023-12-11T06:27:09.058Z,11.60
2023-12-11T06:29:37.241Z,11.60
2023-12-11T06:32:04.565Z,11.50
2023-12-11T06:34:32.000Z,11.50
2023-12-11T06:36:59.296Z,11.60
2023-12-11T06:39:28.222Z,11.60
2023-12-11T06:41:55.477Z,11.60
2023-12-11T06:44:23.773Z,11.50
2023-12-11T06:46:50.773Z,11.50
2023-12-11T06:49:17.901Z,11.50
2023-12-11T06:51:45.043Z,11.50
2023-12-11T06:54:12.663Z,11.50
2023-12-11T06:56:39.919Z,11.50
2023-12-11T06:59:06.904Z,11.50
2023-12-11T07:01:35.230Z,11.50
2023-12-11T07:04:03.120Z,11.50
2023-12-11T07:06:30.493Z,11.50
2023-12-11T07:08:58.129Z,11.60
2023-12-11T07:11:28.578Z,11.60
2023-12-11T07:13:55.744Z,11.60
2023-12-11T07:16:24.799Z,11.60
2023-12-11T07:18:52.710Z,11.60
2023-12-11T07:21:19.930Z,11.60
2023-12-11T07:23:49.666Z,11.50
2023-12-11T07:26:16.938Z,11.50
2023-12-11T07:28:43.909Z,11.70
2023-12-11T07:31:10.847Z,11.60
2023-12-11T07:33:37.876Z,11.60
2023-12-11T07:36:06.101Z,11.60
2023-12-11T07:38:33.316Z,11.60
2023-12-11T07:41:00.383Z,11.70
2023-12-11T07:43:27.429Z,11.60
2023-12-11T07:45:55.025Z,11.60
2023-12-11T07:48:22.231Z,11.60
2023-12-11T07:50:49.308Z,11.70
2023-12-11T07:53:16.251Z,11.60
2023-12-11T07:55:43.267Z,11.70
2023-12-11T07:58:12.089Z,11.70
2023-12-11T08:00:39.177Z,11.80
2023-12-11T08:03:07.425Z,11.70
2023-12-11T08:05:34.783Z,11.80
2023-12-11T08:08:02.810Z,11.90
2023-12-11T08:10:30.078Z,11.90
2023-12-11T08:12:57.226Z,11.90
2023-12-11T08:15:24.234Z,12.00
2023-12-11T08:17:51.234Z,12.00
2023-12-11T08:20:19.717Z,12.00
2023-12-11T08:22:47.114Z,12.00
2023-12-11T08:25:15.021Z,12.20
2023-12-11T08:27:43.650Z,12.10
2023-12-11T08:30:11.959Z,12.10
2023-12-11T08:32:40.727Z,12.10
2023-12-11T08:35:09.811Z,12.20
2023-12-11T08:37:37.760Z,12.30
2023-12-11T08:40:06.814Z,12.40
2023-12-11T08:42:39.179Z,12.30
2023-12-11T08:45:09.012Z,12.30
2023-12-11T08:47:39.192Z,12.40
2023-12-11T08:50:07.979Z,12.40
2023-12-11T08:52:35.444Z,12.40
2023-12-11T08:55:02.553Z,12.50
2023-12-11T08:57:30.419Z,12.40
2023-12-11T08:59:58.968Z,12.60
2023-12-11T09:02:26.326Z,12.60
2023-12-11T09:04:53.328Z,12.60
2023-12-11T09:07:20.462Z,12.60
2023-12-11T09:09:47.678Z,12.50
2023-12-11T09:12:23.464Z,12.70
2023-12-11T09:14:58.229Z,12.80
2023-12-11T09:17:25.387Z,12.60
2023-12-11T09:19:55.710Z,12.80
2023-12-11T09:22:24.499Z,12.80
2023-12-11T09:24:52.118Z,12.90
2023-12-11T09:27:19.197Z,12.90
2023-12-11T09:29:49.949Z,12.90
2023-12-11T09:32:17.738Z,12.90
2023-12-11T09:34:45.018Z,12.90
2023-12-11T09:37:12.275Z,12.90
2023-12-11T09:39:40.617Z,13.00
2023-12-11T09:42:27.923Z,13.00
2023-12-11T09:44:55.671Z,12.90
2023-12-11T09:47:30.416Z,13.00
2023-12-11T09:49:57.831Z,13.00
2023-12-11T09:52:25.718Z,13.00
2023-12-11T09:54:52.677Z,13.00
2023-12-11T09:57:20.589Z,13.10
2023-12-11T09:59:51.436Z,13.10
2023-12-11T10:02:19.202Z,13.10
2023-12-11T10:05:11.741Z,13.10
2023-12-11T10:07:42.837Z,13.20
2023-12-11T10:10:31.435Z,13.20
2023-12-11T10:12:59.453Z,13.10
2023-12-11T10:15:31.788Z,13.10
2023-12-11T10:18:19.748Z,13.20
2023-12-11T10:20:55.130Z,13.10
2023-12-11T10:23:23.673Z,13.20
2023-12-11T10:25:53.479Z,13.20
2023-12-11T10:28:25.292Z,13.20
2023-12-11T10:30:57.357Z,13.30
2023-12-11T10:33:27.271Z,13.40
2023-12-11T10:36:17.326Z,13.40
2023-12-11T10:38:44.547Z,13.40
2023-12-11T10:41:26.520Z,13.30
2023-12-11T10:44:07.897Z,13.40
2023-12-11T10:46:41.249Z,13.40
2023-12-11T10:49:08.529Z,13.30
2023-12-11T10:51:36.569Z,13.40
2023-12-11T10:54:03.513Z,13.30
2023-12-11T10:56:30.990Z,13.50
2023-12-11T10:58:59.367Z,13.40
2023-12-11T11:01:27.189Z,13.50
2023-12-11T11:03:54.655Z,13.40
2023-12-11T11:06:23.750Z,13.50
2023-12-11T11:09:01.452Z,13.50
2023-12-11T11:11:33.979Z,13.40
2023-12-11T11:14:19.208Z,13.50
2023-12-11T11:16:52.892Z,13.40
2023-12-11T11:19:19.877Z,13.50
2023-12-11T11:22:31.226Z,13.50
2023-12-11T11:25:31.068Z,13.50
2023-12-11T11:27:58.618Z,13.50
2023-12-11T11:30:45.284Z,13.50
2023-12-11T11:33:12.542Z,13.50
2023-12-11T11:35:53.718Z,13.60
2023-12-11T11:38:22.418Z,13.50
2023-12-11T11:40:51.852Z,13.50
2023-12-11T11:43:19.469Z,13.40
2023-12-11T11:45:46.462Z,13.50
2023-12-11T11:48:13.701Z,13.50
2023-12-11T11:50:55.022Z,13.50
2023-12-11T11:53:22.776Z,13.50
2023-12-11T11:55:49.870Z,13.40
2023-12-11T11:58:17.396Z,13.60
2023-12-11T12:00:44.611Z,13.50
2023-12-11T12:03:12.256Z,13.50
2023-12-11T12:05:58.658Z,13.50
2023-12-11T12:08:25.933Z,13.60
2023-12-11T12:10:57.738Z,13.50
2023-12-11T12:13:24.812Z,13.50
2023-12-11T12:15:53.311Z,13.50
2023-12-11T12:18:20.506Z,13.50
2023-12-11T12:21:07.433Z,13.50
2023-12-11T12:23:34.418Z,13.50
2023-12-11T12:26:04.026Z,13.60
2023-12-11T12:28:31.159Z,13.50
2023-12-11T12:30:58.317Z,13.50
2023-12-11T12:33:26.067Z,13.40
2023-12-11T12:35:53.448Z,13.50
2023-12-11T12:38:20.557Z,13.50
2023-12-11T12:40:47.574Z,13.50
2023-12-11T12:43:15.142Z,13.50
2023-12-11T12:45:43.141Z,13.50
2023-12-11T12:48:10.984Z,13.40
2023-12-11T12:50:38.219Z,13.50
2023-12-11T12:53:11.612Z,13.50
2023-12-11T12:55:40.525Z,13.50
2023-12-11T12:58:08.936Z,13.60
2023-12-11T13:00:36.963Z,13.50
2023-12-11T13:03:05.145Z,13.60
2023-12-11T13:05:43.774Z,13.60
2023-12-11T13:08:11.188Z,13.70
2023-12-11T13:10:38.678Z,13.70
2023-12-11T13:13:12.388Z,13.60
2023-12-11T13:15:40.596Z,13.70
2023-12-11T13:18:07.735Z,13.70
2023-12-11T13:20:35.134Z,13.70
2023-12-11T13:23:02.231Z,13.70
2023-12-11T13:25:29.337Z,13.70
2023-12-11T13:27:56.245Z,13.70
2023-12-11T13:30:23.682Z,13.70
2023-12-11T13:32:51.813Z,13.70
2023-12-11T13:35:19.758Z,13.70
2023-12-11T13:37:46.733Z,13.70
2023-12-11T13:40:14.122Z,13.70
2023-12-11T13:42:41.126Z,13.80
2023-12-11T13:45:08.433Z,13.70
2023-12-11T13:47:35.374Z,13.80
2023-12-11T13:50:02.439Z,13.70
2023-12-11T13:52:29.695Z,13.70
2023-12-11T13:54:56.652Z,13.80
2023-12-11T13:57:23.584Z,13.80
2023-12-11T13:59:50.718Z,13.70
2023-12-11T14:02:57.905Z,13.70
2023-12-11T14:05:07.146Z,13.80
2023-12-11T14:07:34.474Z,13.70
2023-12-11T14:10:01.473Z,13.70
2023-12-11T14:12:28.771Z,13.70
2023-12-11T14:14:55.613Z,13.70
2023-12-11T14:17:22.591Z,13.70
2023-12-11T14:19:50.476Z,13.80
2023-12-11T14:22:17.467Z,13.70
2023-12-11T14:24:45.518Z,13.70
2023-12-11T14:27:14.639Z,13.70
2023-12-11T14:29:42.241Z,13.60
2023-12-11T14:32:09.275Z,13.70
2023-12-11T14:37:10.708Z,13.60
2023-12-11T14:39:38.735Z,13.60
2023-12-11T14:42:06.595Z,13.60
2023-12-11T14:44:40.661Z,13.60
2023-12-11T14:47:07.790Z,13.60
2023-12-11T14:49:35.946Z,13.60
2023-12-11T14:52:03.528Z,13.50
2023-12-11T14:54:30.506Z,13.50
2023-12-11T14:56:57.978Z,13.50
2023-12-11T14:59:24.926Z,13.50
2023-12-11T15:01:52.019Z,13.50
2023-12-11T15:04:19.090Z,13.50
2023-12-11T15:06:46.937Z,13.50
2023-12-11T15:09:16.262Z,13.60
2023-12-11T15:11:43.349Z,13.50
2023-12-11T15:14:12.807Z,13.60
2023-12-11T15:16:42.288Z,13.60
2023-12-11T15:19:10.745Z,13.60
2023-12-11T15:21:38.576Z,13.50
2023-12-11T15:24:06.887Z,13.60
2023-12-11T15:26:33.987Z,13.60
2023-12-11T15:29:04.903Z,13.60
2023-12-11T15:31:32.002Z,13.60
2023-12-11T15:33:59.187Z,13.60
2023-12-11T15:36:26.220Z,13.60
2023-12-11T15:38:53.299Z,13.60
2023-12-11T15:41:20.605Z,13.50
2023-12-11T15:43:47.583Z,13.50
2023-12-11T15:46:16.569Z,13.60
2023-12-11T15:48:48.041Z,13.50
2023-12-11T15:51:16.654Z,13.50
2023-12-11T15:53:45.783Z,13.60
2023-12-11T15:56:22.571Z,13.60
2023-12-11T15:58:49.562Z,13.60
2023-12-11T16:01:16.899Z,13.60
2023-12-11T16:03:44.122Z,13.60
2023-12-11T16:06:11.584Z,13.60
2023-12-11T16:08:38.583Z,13.60
2023-12-11T16:11:07.278Z,13.50
2023-12-11T16:13:34.237Z,13.60
2023-12-11T16:16:01.352Z,13.60
2023-12-11T16:18:28.430Z,13.60
2023-12-11T16:20:55.407Z,13.60
2023-12-11T16:23:22.366Z,13.60
2023-12-11T16:25:56.421Z,13.60
2023-12-11T16:28:29.913Z,13.60
2023-12-11T16:30:57.344Z,13.70
2023-12-11T16:33:25.252Z,13.60
2023-12-11T16:35:52.265Z,13.70
2023-12-11T16:38:19.314Z,13.70
2023-12-11T16:40:46.230Z,13.60
2023-12-11T16:43:13.227Z,13.60
2023-12-11T16:45:44.799Z,13.70
2023-12-11T16:48:13.342Z,13.60
2023-12-11T16:50:46.137Z,13.70
2023-12-11T16:53:13.305Z,13.60
2023-12-11T16:55:42.677Z,13.70
2023-12-11T16:58:10.659Z,13.60
2023-12-11T17:00:38.570Z,13.70
2023-12-11T17:03:06.614Z,13.70
2023-12-11T17:05:34.761Z,13.60
2023-12-11T17:08:05.713Z,13.70
2023-12-11T17:10:33.090Z,13.70
2023-12-11T17:13:00.919Z,13.80
2023-12-11T17:15:28.423Z,13.70
2023-12-11T17:17:55.510Z,13.70
2023-12-11T17:20:23.760Z,13.80
2023-12-11T17:22:50.724Z,13.70
2023-12-11T17:25:17.705Z,13.80
2023-12-11T17:27:44.696Z,13.80
2023-12-11T17:30:12.226Z,13.80
2023-12-11T17:32:40.529Z,13.80
2023-12-11T17:35:07.799Z,13.90
2023-12-11T17:37:34.815Z,13.80
2023-12-11T17:40:02.750Z,13.90
2023-12-11T17:42:31.775Z,13.80
2023-12-11T17:44:59.920Z,13.80
2023-12-11T17:47:27.660Z,13.80
2023-12-11T17:49:54.693Z,13.80
2023-12-11T17:52:22.347Z,13.80
2023-12-11T17:54:50.553Z,13.80
2023-12-11T17:57:17.865Z,13.80
2023-12-11T17:59:44.843Z,13.70
2023-12-11T18:02:11.787Z,13.80
2023-12-11T18:04:41.526Z,13.70
2023-12-11T18:07:08.487Z,13.80
2023-12-11T18:09:37.125Z,13.80
2023-12-11T18:12:05.422Z,13.80
2023-12-11T18:14:32.465Z,13.80
2023-12-11T18:16:59.371Z,13.80
2023-12-11T18:19:26.551Z,13.80
2023-12-11T18:21:53.550Z,13.90
2023-12-11T18:24:20.472Z,13.80
2023-12-11T18:26:48.754Z,13.80
2023-12-11T18:29:17.773Z,13.70
2023-12-11T18:31:45.011Z,13.80
2023-12-11T18:34:12.161Z,13.70
2023-12-11T18:36:40.859Z,13.80
2023-12-11T18:39:14.821Z,13.80
2023-12-11T18:41:41.806Z,13.80
2023-12-11T18:44:09.231Z,13.80
2023-12-11T18:46:36.166Z,13.70
2023-12-11T18:49:04.922Z,13.70
2023-12-11T18:51:32.652Z,13.80
2023-12-11T18:53:59.685Z,13.70
2023-12-11T18:56:26.729Z,13.70
2023-12-11T18:58:54.386Z,13.70
2023-12-11T19:01:21.875Z,13.70
2023-12-11T19:03:49.185Z,13.60
2023-12-11T19:06:16.229Z,13.60
2023-12-11T19:08:43.105Z,13.70
2023-12-11T19:11:13.528Z,13.70
2023-12-11T19:13:40.674Z,13.70
2023-12-11T19:16:09.165Z,13.60
2023-12-11T19:18:36.985Z,13.70
2023-12-11T19:21:05.215Z,13.60
2023-12-11T19:23:32.126Z,13.70
2023-12-11T19:25:59.512Z,13.70
2023-12-11T19:28:26.569Z,13.70
2023-12-11T19:30:53.932Z,13.70
2023-12-11T19:33:22.076Z,13.70
2023-12-11T19:35:49.439Z,13.70
2023-12-11T19:38:18.258Z,13.70
2023-12-11T19:40:45.436Z,13.70
2023-12-11T19:43:13.656Z,13.70
2023-12-11T19:45:40.684Z,13.80
2023-12-11T19:48:07.744Z,13.80
2023-12-11T19:50:34.853Z,13.70
2023-12-11T19:53:01.810Z,13.80
2023-12-11T19:55:28.793Z,13.80
2023-12-11T19:57:55.756Z,13.80
2023-12-11T20:00:22.740Z,13.80
2023-12-11T20:02:49.807Z,13.70
2023-12-11T20:05:16.909Z,13.90
2023-12-11T20:07:43.860Z,13.80
2023-12-11T20:10:11.963Z,13.80
2023-12-11T20:12:38.956Z,13.80
2023-12-11T20:15:06.554Z,13.80
2023-12-11T20:17:35.059Z,13.70
2023-12-11T20:20:06.161Z,13.70
2023-12-11T20:22:33.831Z,13.70
2023-12-11T20:25:00.994Z,13.70
2023-12-11T20:27:28.582Z,13.60
2023-12-11T20:29:55.620Z,13.70
2023-12-11T20:32:22.607Z,13.70
2023-12-11T20:34:49.563Z,13.80
2023-12-11T20:37:16.639Z,13.70
2023-12-11T20:39:44.103Z,13.70
2023-12-11T20:42:11.157Z,13.70
2023-12-11T20:44:38.084Z,13.70
2023-12-11T20:47:05.185Z,13.70
2023-12-11T20:49:35.124Z,13.80
2023-12-11T20:52:02.496Z,13.70
2023-12-11T20:54:29.471Z,13.80
2023-12-11T20:56:56.368Z,13.80
2023-12-11T20:59:23.220Z,13.80
2023-12-11T21:01:50.228Z,13.80
2023-12-11T21:04:17.333Z,13.80
2023-12-11T21:06:44.388Z,13.80
2023-12-11T21:09:13.602Z,13.80
2023-12-11T21:11:40.502Z,13.80
2023-12-11T21:14:07.352Z,13.80
2023-12-11T21:16:37.613Z,13.80
2023-12-11T21:19:04.813Z,13.90
2023-12-11T21:21:32.032Z,13.80
2023-12-11T21:23:58.997Z,13.90
2023-12-11T21:26:26.785Z,13.80
2023-12-11T21:28:54.603Z,13.90
2023-12-11T21:31:26.770Z,13.80
2023-12-11T21:33:55.119Z,13.90
2023-12-11T21:36:23.549Z,13.90
2023-12-11T21:38:51.307Z,13.80
2023-12-11T21:41:18.367Z,13.90
2023-12-11T21:43:48.505Z,13.90
2023-12-11T21:46:16.392Z,13.90
2023-12-11T21:48:44.614Z,13.90
2023-12-11T21:51:16.675Z,13.80
2023-12-11T21:53:44.562Z,13.80
2023-12-11T21:56:11.666Z,13.80
2023-12-11T21:58:38.679Z,13.80
2023-12-11T22:01:06.244Z,13.80
2023-12-11T22:03:33.356Z,13.70
2023-12-11T22:06:01.891Z,13.80
2023-12-11T22:08:28.824Z,13.70
2023-12-11T22:10:55.702Z,13.80
2023-12-11T22:13:23.345Z,13.80
2023-12-11T22:15:50.360Z,13.80
2023-12-11T22:18:17.622Z,13.80
2023-12-11T22:20:44.653Z,13.80
2023-12-11T22:23:12.199Z,13.80
2023-12-11T22:25:39.148Z,13.90
2023-12-11T22:28:06.140Z,13.80
2023-12-11T22:30:33.080Z,13.90
2023-12-11T22:33:00.081Z,13.80
2023-12-11T22:35:27.037Z,13.90
2023-12-11T22:37:54.450Z,13.90
2023-12-11T22:40:22.041Z,13.90
2023-12-11T22:42:49.196Z,13.90
2023-12-11T22:45:17.839Z,14.00
2023-12-11T22:47:45.078Z,13.90
2023-12-11T22:50:12.236Z,13.90
2023-12-11T22:52:39.246Z,14.00
2023-12-11T22:55:06.625Z,13.90
2023-12-11T22:57:34.022Z,13.90
2023-12-11T23:00:01.125Z,13.90
2023-12-11T23:02:28.088Z,14.00
2023-12-11T23:04:56.827Z,13.90
2023-12-11T23:07:24.288Z,14.00
2023-12-11T23:09:51.309Z,14.00
2023-12-11T23:12:18.498Z,14.00
2023-12-11T23:14:45.701Z,14.00
2023-12-11T23:17:12.746Z,14.00
2023-12-11T23:19:39.833Z,14.00
2023-12-11T23:22:06.857Z,14.10
2023-12-11T23:24:33.859Z,14.00
2023-12-11T23:27:00.967Z,14.00
2023-12-11T23:29:28.110Z,14.00
2023-12-11T23:31:55.080Z,14.10
2023-12-11T23:34:22.043Z,14.10
2023-12-11T23:36:49.069Z,14.10
2023-12-11T23:39:16.015Z,14.20
2023-12-11T23:41:44.774Z,14.10
2023-12-11T23:44:11.819Z,14.10
2023-12-11T23:46:38.998Z,14.20
2023-12-11T23:49:06.244Z,14.20
2023-12-11T23:51:33.231Z,14.20
2023-12-11T23:54:00.775Z,14.10
2023-12-11T23:56:27.648Z,14.20
2023-12-11T23:58:54.717Z,14.20
